createdAt,value
2023-04-11T00:01:52.931Z,9.15
2023-04-11T00:04:21.068Z,9.17
2023-04-11T00:06:48.862Z,9.12
2023-04-11T00:09:20.081Z,9.14
2023-04-11T00:11:48.130Z,9.05
2023-04-11T00:14:15.743Z,8.79
2023-04-11T00:16:43.199Z,8.61
2023-04-11T00:19:10.859Z,8.41
2023-04-11T00:21:41.257Z,8.31
2023-04-11T00:24:08.973Z,8.34
2023-04-11T00:26:36.500Z,8.22
2023-04-11T00:29:04.100Z,8.27
2023-04-11T00:31:31.453Z,8.34
2023-04-11T00:33:59.180Z,8.46
2023-04-11T00:36:27.133Z,8.37
2023-04-11T00:38:55.435Z,8.29
2023-04-11T00:41:22.911Z,8.29
2023-04-11T00:43:50.835Z,8.38
2023-04-11T00:46:18.857Z,8.30
2023-04-11T00:48:47.152Z,8.31
2023-04-11T00:51:16.202Z,8.28
2023-04-11T00:53:45.841Z,8.29
2023-04-11T00:56:13.586Z,8.30
2023-04-11T00:58:42.228Z,8.33
2023-04-11T01:01:09.698Z,8.25
2023-04-11T01:03:41.516Z,8.34
2023-04-11T01:06:13.024Z,8.32
2023-04-11T01:08:43.444Z,8.33
2023-04-11T01:11:15.931Z,8.33
2023-04-11T01:13:43.815Z,8.41
2023-04-11T01:16:11.501Z,8.43
2023-04-11T01:18:39.209Z,8.47
2023-04-11T01:21:07.193Z,8.48
2023-04-11T01:23:34.850Z,8.48
2023-04-11T01:26:02.179Z,8.58
2023-04-11T01:28:29.737Z,8.65
2023-04-11T01:30:57.902Z,8.72
2023-04-11T01:33:26.077Z,8.71
2023-04-11T01:35:53.489Z,8.68
2023-04-11T01:38:21.605Z,8.76
2023-04-11T01:40:49.113Z,8.80
2023-04-11T01:43:16.869Z,8.82
2023-04-11T01:45:44.377Z,8.82
2023-04-11T01:48:12.205Z,8.84
2023-04-11T01:50:39.542Z,8.81
2023-04-11T01:53:08.156Z,8.80
2023-04-11T01:55:35.386Z,8.81
2023-04-11T01:58:03.004Z,8.83
2023-04-11T02:00:30.401Z,8.82
2023-04-11T02:02:58.110Z,8.87
2023-04-11T02:05:25.877Z,8.91
2023-04-11T02:07:53.478Z,8.92
2023-04-11T02:10:20.691Z,8.97
2023-04-11T02:12:48.304Z,8.94
2023-04-11T02:15:15.707Z,8.89
2023-04-11T02:17:45.630Z,8.88
2023-04-11T02:20:14.580Z,8.88
2023-04-11T02:22:42.276Z,8.90
2023-04-11T02:25:09.974Z,8.92
2023-04-11T02:27:37.577Z,8.99
2023-04-11T02:30:06.313Z,9.05
2023-04-11T02:32:38.382Z,9.05
2023-04-11T02:35:07.897Z,8.97
2023-04-11T02:37:36.029Z,9.00
2023-04-11T02:40:04.578Z,8.91
2023-04-11T02:42:32.235Z,8.87
2023-04-11T02:44:59.764Z,8.82
2023-04-11T02:47:27.462Z,8.80
2023-04-11T02:49:54.712Z,8.77
2023-04-11T02:52:22.441Z,8.68
2023-04-11T02:54:49.709Z,8.60
2023-04-11T02:57:17.904Z,8.54
2023-04-11T02:59:45.648Z,8.43
2023-04-11T03:02:13.249Z,8.33
2023-04-11T03:04:40.801Z,8.22
2023-04-11T03:07:08.397Z,8.10
2023-04-11T03:09:35.633Z,7.97
2023-04-11T03:12:03.384Z,7.85
2023-04-11T03:14:32.025Z,7.79
2023-04-11T03:16:59.593Z,7.82
2023-04-11T03:19:26.859Z,7.87
2023-04-11T03:21:54.525Z,7.86
2023-04-11T03:24:22.510Z,7.85
2023-04-11T03:26:50.295Z,7.87
2023-04-11T03:29:17.547Z,7.87
2023-04-11T03:31:45.156Z,7.84
2023-04-11T03:34:12.539Z,7.83
2023-04-11T03:36:40.043Z,7.86
2023-04-11T03:39:07.411Z,7.88
2023-04-11T03:41:36.125Z,7.97
2023-04-11T03:44:03.448Z,7.92
2023-04-11T03:46:31.422Z,7.88
2023-04-11T03:48:58.860Z,7.92
2023-04-11T03:51:26.927Z,7.98
2023-04-11T03:53:54.221Z,7.98
2023-04-11T03:56:22.146Z,7.88
2023-04-11T03:58:49.546Z,7.98
2023-04-11T04:01:17.111Z,7.97
2023-04-11T04:03:44.622Z,7.91
2023-04-11T04:06:12.449Z,7.89
2023-04-11T04:08:39.783Z,7.88
2023-04-11T04:11:07.417Z,7.91
2023-04-11T04:13:34.761Z,7.87
2023-04-11T04:16:03.669Z,7.88
2023-04-11T04:18:31.296Z,7.87
2023-04-11T04:20:58.855Z,7.84
2023-04-11T04:23:26.975Z,7.81
2023-04-11T04:25:58.104Z,7.79
2023-04-11T04:28:26.213Z,7.82
2023-04-11T04:30:54.500Z,7.77
2023-04-11T04:33:22.107Z,7.73
2023-04-11T04:35:58.230Z,7.71
2023-04-11T04:38:26.160Z,7.76
2023-04-11T04:40:54.925Z,7.72
2023-04-11T04:43:24.621Z,7.72
2023-04-11T04:45:52.295Z,7.71
2023-04-11T04:48:20.149Z,7.71
2023-04-11T04:50:47.750Z,7.79
2023-04-11T04:53:15.050Z,7.91
2023-04-11T04:55:42.672Z,8.04
2023-04-11T04:58:09.921Z,7.98
2023-04-11T05:00:37.711Z,8.10
2023-04-11T05:03:06.110Z,8.10
2023-04-11T05:05:34.087Z,8.16
2023-04-11T05:08:01.440Z,8.13
2023-04-11T05:10:29.122Z,8.19
2023-04-11T05:12:56.563Z,8.33
2023-04-11T05:15:24.366Z,8.52
2023-04-11T05:17:51.703Z,8.70
2023-04-11T05:20:20.087Z,8.73
2023-04-11T05:22:49.398Z,8.87
2023-04-11T05:25:18.082Z,9.12
2023-04-11T05:27:45.483Z,9.26
2023-04-11T05:30:13.759Z,9.35
2023-04-11T05:32:41.060Z,9.42
2023-04-11T05:35:09.249Z,9.56
2023-04-11T05:37:37.326Z,9.63
2023-04-11T05:40:07.964Z,9.81
2023-04-11T05:42:35.264Z,9.96
2023-04-11T05:45:02.866Z,10.09
2023-04-11T05:47:30.195Z,10.35
2023-04-11T05:49:57.823Z,10.45
2023-04-11T05:52:25.307Z,10.54
2023-04-11T05:54:52.996Z,10.66
2023-04-11T05:57:21.117Z,10.75
2023-04-11T05:59:53.097Z,10.92
2023-04-11T06:02:20.620Z,11.23
2023-04-11T06:04:48.558Z,11.33
2023-04-11T06:07:16.279Z,11.50
2023-04-11T06:09:44.393Z,11.59
2023-04-11T06:12:11.796Z,11.75
2023-04-11T06:14:40.681Z,11.80
2023-04-11T06:17:08.271Z,11.91
2023-04-11T06:19:35.914Z,12.08
2023-04-11T06:22:03.212Z,12.15
2023-04-11T06:24:39.330Z,12.26
2023-04-11T06:27:10.218Z,12.30
2023-04-11T06:29:39.017Z,12.28
2023-04-11T06:32:07.894Z,12.37
2023-04-11T06:34:35.712Z,12.51
2023-04-11T06:37:03.056Z,12.71
2023-04-11T06:39:30.944Z,12.82
2023-04-11T06:41:58.265Z,13.05
2023-04-11T06:44:26.487Z,13.38
2023-04-11T06:46:54.630Z,13.73
2023-04-11T06:49:23.472Z,14.29
2023-04-11T06:51:51.123Z,14.95
2023-04-11T06:54:19.260Z,15.87
2023-04-11T06:56:47.528Z,16.66
2023-04-11T06:59:15.186Z,17.12
2023-04-11T07:01:42.600Z,17.09
2023-04-11T07:04:10.344Z,16.34
2023-04-11T07:06:38.253Z,16.57
2023-04-11T07:09:06.566Z,16.67
2023-04-11T07:11:34.047Z,17.25
2023-04-11T07:14:02.518Z,16.90
2023-04-11T07:16:29.901Z,17.24
2023-04-11T07:18:59.245Z,18.01
2023-04-11T07:21:30.347Z,18.09
2023-04-11T07:23:58.216Z,18.55
2023-04-11T07:26:27.367Z,18.90
2023-04-11T07:28:54.909Z,19.30
2023-04-11T07:31:22.867Z,20.49
2023-04-11T07:33:51.400Z,21.88
2023-04-11T07:36:18.718Z,23.04
2023-04-11T07:38:46.979Z,24.07
2023-04-11T07:41:14.351Z,24.88
2023-04-11T07:43:41.904Z,23.27
2023-04-11T07:46:09.291Z,21.70
2023-04-11T07:48:37.144Z,21.33
2023-04-11T07:51:04.928Z,20.56
2023-04-11T07:53:34.082Z,19.65
2023-04-11T07:56:01.639Z,19.07
2023-04-11T07:58:30.295Z,18.64
2023-04-11T08:00:59.116Z,18.06
2023-04-11T08:03:27.212Z,17.64
2023-04-11T08:05:54.737Z,17.22
2023-04-11T08:08:22.454Z,17.14
2023-04-11T08:10:51.911Z,17.02
2023-04-11T08:13:19.846Z,17.08
2023-04-11T08:15:47.178Z,17.25
2023-04-11T08:18:16.610Z,17.24
2023-04-11T08:20:44.026Z,17.56
2023-04-11T08:23:11.723Z,18.52
2023-04-11T08:25:39.484Z,19.39
2023-04-11T08:28:09.968Z,19.88
2023-04-11T08:30:37.319Z,22.59
2023-04-11T08:33:04.999Z,25.04
2023-04-11T08:35:32.372Z,27.97
2023-04-11T08:37:59.915Z,30.09
2023-04-11T08:40:28.729Z,32.13
2023-04-11T08:43:02.804Z,35.53
2023-04-11T08:45:30.328Z,37.08
2023-04-11T08:47:57.942Z,38.27
2023-04-11T08:50:26.392Z,38.72
2023-04-11T08:52:54.983Z,37.65
2023-04-11T08:55:22.405Z,37.76
2023-04-11T08:57:49.997Z,37.50
2023-04-11T09:00:23.562Z,36.01
2023-04-11T09:03:03.996Z,36.51
2023-04-11T09:05:39.642Z,36.88
2023-04-11T09:08:12.819Z,35.01
2023-04-11T09:10:45.488Z,33.28
2023-04-11T09:13:28.749Z,30.83
2023-04-11T09:16:05.847Z,29.72
2023-04-11T09:18:42.400Z,28.53
2023-04-11T09:21:19.617Z,27.37
2023-04-11T09:23:47.197Z,27.58
2023-04-11T09:26:30.051Z,27.30
2023-04-11T09:28:57.943Z,28.40
2023-04-11T09:31:45.576Z,29.42
2023-04-11T09:34:13.586Z,28.47
2023-04-11T09:36:41.211Z,29.21
2023-04-11T09:39:21.151Z,30.13
2023-04-11T09:41:48.743Z,31.26
2023-04-11T09:44:16.417Z,32.80
2023-04-11T09:46:59.854Z,34.24
2023-04-11T09:49:28.034Z,33.83
2023-04-11T09:51:59.497Z,32.29
2023-04-11T09:54:28.436Z,31.78
2023-04-11T09:56:57.349Z,31.86
2023-04-11T09:59:27.575Z,31.37
2023-04-11T10:01:56.828Z,31.20
2023-04-11T10:04:28.221Z,31.50
2023-04-11T10:07:09.165Z,31.98
2023-04-11T10:09:43.093Z,34.24
2023-04-11T10:12:10.723Z,36.70
2023-04-11T10:14:38.175Z,38.52
2023-04-11T10:17:15.743Z,39.61
2023-04-11T10:19:45.134Z,39.48
2023-04-11T10:22:59.412Z,38.72
2023-04-11T10:25:27.826Z,37.01
2023-04-11T10:28:01.575Z,34.83
2023-04-11T10:31:14.082Z,34.18
2023-04-11T10:34:19.305Z,34.28
2023-04-11T10:37:07.802Z,35.27
2023-04-11T10:39:53.986Z,36.86
2023-04-11T10:42:43.536Z,37.74
2023-04-11T10:45:21.818Z,38.27
2023-04-11T10:47:52.365Z,39.65
2023-04-11T10:50:37.066Z,40.46
2023-04-11T10:53:06.874Z,39.81
2023-04-11T10:55:51.133Z,40.49
2023-04-11T10:58:22.214Z,38.83
2023-04-11T11:00:55.806Z,40.72
2023-04-11T11:03:34.365Z,41.36
2023-04-11T11:06:06.344Z,39.97
2023-04-11T11:08:46.672Z,41.39
2023-04-11T11:11:19.562Z,40.72
2023-04-11T11:13:56.205Z,37.96
2023-04-11T11:16:26.199Z,35.59
2023-04-11T11:18:59.223Z,37.64
2023-04-11T11:21:28.891Z,39.02
2023-04-11T11:24:02.701Z,37.71
2023-04-11T11:26:44.092Z,35.03
2023-04-11T11:29:12.349Z,36.05
2023-04-11T11:31:47.841Z,37.02
2023-04-11T11:34:35.235Z,36.17
2023-04-11T11:37:06.786Z,38.09
2023-04-11T11:39:35.615Z,39.39
2023-04-11T11:42:03.608Z,40.05
2023-04-11T11:44:32.841Z,40.38
2023-04-11T11:47:17.152Z,40.25
2023-04-11T11:49:56.202Z,39.92
2023-04-11T11:52:37.713Z,38.70
2023-04-11T11:55:11.405Z,38.57
2023-04-11T11:57:46.034Z,38.18
2023-04-11T12:00:15.098Z,38.47
2023-04-11T12:02:44.578Z,38.21
2023-04-11T12:05:13.028Z,37.71
2023-04-11T12:07:40.727Z,36.71
2023-04-11T12:10:14.984Z,38.90
2023-04-11T12:12:53.315Z,39.09
2023-04-11T12:15:24.585Z,37.44
2023-04-11T12:17:54.015Z,38.31
2023-04-11T12:20:27.328Z,38.53
2023-04-11T12:22:55.427Z,39.33
2023-04-11T12:25:25.756Z,38.17
2023-04-11T12:27:53.115Z,36.78
2023-04-11T12:30:20.898Z,35.13
2023-04-11T12:32:48.268Z,33.47
2023-04-11T12:35:15.845Z,35.00
2023-04-11T12:37:44.532Z,36.59
2023-04-11T12:40:13.077Z,36.25
2023-04-11T12:42:53.073Z,37.66
2023-04-11T12:45:23.521Z,36.49
2023-04-11T12:47:51.129Z,36.38
2023-04-11T12:50:18.899Z,36.66
2023-04-11T12:52:46.362Z,36.06
2023-04-11T12:55:13.994Z,35.72
2023-04-11T12:57:42.497Z,36.87
2023-04-11T13:00:11.713Z,37.81
2023-04-11T13:02:44.570Z,37.52
2023-04-11T13:05:17.029Z,37.92
2023-04-11T13:07:46.129Z,36.79
2023-04-11T13:10:16.376Z,33.85
2023-04-11T13:12:45.581Z,33.10
2023-04-11T13:15:17.097Z,33.84
2023-04-11T13:17:44.928Z,33.94
2023-04-11T13:20:13.506Z,34.27
2023-04-11T13:22:42.405Z,34.84
2023-04-11T13:25:12.294Z,34.79
2023-04-11T13:27:40.281Z,34.90
2023-04-11T13:30:10.008Z,34.04
2023-04-11T13:32:37.461Z,34.71
2023-04-11T13:35:06.313Z,33.63
2023-04-11T13:37:33.822Z,30.95
2023-04-11T13:40:01.562Z,29.41
2023-04-11T13:42:28.909Z,27.81
2023-04-11T13:44:56.576Z,26.90
2023-04-11T13:47:24.781Z,26.19
2023-04-11T13:49:52.602Z,25.64
2023-04-11T13:52:22.293Z,25.06
2023-04-11T13:54:50.338Z,24.06
2023-04-11T13:57:17.648Z,23.60
2023-04-11T13:59:45.404Z,23.78
2023-04-11T14:02:12.823Z,23.83
2023-04-11T14:04:40.682Z,23.58
2023-04-11T14:07:08.162Z,23.17
2023-04-11T14:09:35.859Z,22.96
2023-04-11T14:12:04.268Z,22.60
2023-04-11T14:14:32.552Z,21.85
2023-04-11T14:17:00.169Z,21.18
2023-04-11T14:19:27.853Z,21.03
2023-04-11T14:21:55.211Z,20.89
2023-04-11T14:24:22.964Z,20.24
2023-04-11T14:26:50.447Z,19.84
2023-04-11T14:29:19.871Z,19.42
2023-04-11T14:31:48.466Z,19.30
2023-04-11T14:34:18.632Z,18.79
2023-04-11T14:36:45.967Z,18.69
2023-04-11T14:39:13.671Z,18.28
2023-04-11T14:41:41.282Z,18.18
2023-04-11T14:44:08.971Z,18.02
2023-04-11T14:46:36.834Z,17.58
2023-04-11T14:49:04.775Z,17.43
2023-04-11T14:51:32.602Z,17.19
2023-04-11T14:54:00.824Z,17.13
2023-04-11T14:56:28.341Z,16.76
2023-04-11T14:58:55.853Z,16.51
2023-04-11T15:01:23.316Z,16.16
2023-04-11T15:03:51.319Z,15.76
2023-04-11T15:06:18.743Z,15.58
2023-04-11T15:08:46.480Z,15.68
2023-04-11T15:11:13.986Z,15.60
2023-04-11T15:13:41.538Z,15.43
2023-04-11T15:16:09.059Z,14.95
2023-04-11T15:18:36.771Z,15.04
2023-04-11T15:21:04.592Z,14.84
2023-04-11T15:23:32.772Z,14.87
2023-04-11T15:26:03.155Z,14.90
2023-04-11T15:28:36.822Z,14.76
2023-04-11T15:31:07.432Z,14.74
2023-04-11T15:33:35.514Z,14.45
2023-04-11T15:36:03.257Z,14.30
2023-04-11T15:38:30.882Z,14.19
2023-04-11T15:41:00.185Z,14.04
2023-04-11T15:43:27.923Z,13.94
2023-04-11T15:45:55.365Z,13.91
2023-04-11T15:48:23.017Z,13.80
2023-04-11T15:50:51.081Z,13.69
2023-04-11T15:53:18.684Z,13.57
2023-04-11T15:55:47.785Z,13.68
2023-04-11T15:58:15.634Z,13.71
2023-04-11T16:00:43.867Z,13.61
2023-04-11T16:03:11.684Z,13.44
2023-04-11T16:05:41.331Z,13.39
2023-04-11T16:08:09.088Z,13.31
2023-04-11T16:10:36.631Z,13.26
2023-04-11T16:13:04.405Z,13.02
2023-04-11T16:15:32.454Z,13.03
2023-04-11T16:18:00.208Z,12.86
2023-04-11T16:20:28.010Z,12.92
2023-04-11T16:22:56.134Z,12.92
2023-04-11T16:25:23.708Z,12.89
2023-04-11T16:27:51.646Z,12.78
2023-04-11T16:30:19.732Z,12.79
2023-04-11T16:32:48.165Z,12.81
2023-04-11T16:35:15.720Z,12.86
2023-04-11T16:37:43.519Z,12.76
2023-04-11T16:40:11.869Z,12.60
2023-04-11T16:42:40.634Z,12.45
2023-04-11T16:45:12.447Z,12.49
2023-04-11T16:47:40.334Z,12.46
2023-04-11T16:50:08.558Z,12.44
2023-04-11T16:52:36.419Z,12.49
2023-04-11T16:55:04.196Z,12.47
2023-04-11T16:57:33.525Z,12.40
2023-04-11T17:00:06.469Z,12.27
2023-04-11T17:02:34.254Z,12.07
2023-04-11T17:05:02.021Z,11.92
2023-04-11T17:07:29.913Z,11.63
2023-04-11T17:09:57.399Z,11.56
2023-04-11T17:12:25.049Z,11.32
2023-04-11T17:14:52.811Z,11.41
2023-04-11T17:17:21.060Z,11.28
2023-04-11T17:19:48.553Z,11.24
2023-04-11T17:22:16.429Z,11.27
2023-04-11T17:24:43.934Z,11.26
2023-04-11T17:27:11.571Z,11.25
2023-04-11T17:29:39.078Z,11.13
2023-04-11T17:32:09.111Z,11.02
2023-04-11T17:34:36.773Z,10.96
2023-04-11T17:37:04.435Z,10.87
2023-04-11T17:39:32.242Z,10.88
2023-04-11T17:41:59.970Z,10.87
2023-04-11T17:44:27.425Z,10.64
2023-04-11T17:46:55.162Z,10.74
2023-04-11T17:49:22.687Z,10.69
2023-04-11T17:51:59.086Z,10.57
2023-04-11T17:55:42.311Z,10.67
2023-04-11T17:58:27.856Z,10.67
2023-04-11T18:00:57.056Z,10.68
2023-04-11T18:03:25.830Z,10.66
2023-04-11T18:05:54.724Z,10.67
2023-04-11T18:08:35.447Z,10.68
2023-04-11T18:11:11.157Z,10.64
2023-04-11T18:13:38.553Z,10.65
2023-04-11T18:16:06.497Z,10.62
2023-04-11T18:18:34.100Z,10.52
2023-04-11T18:21:07.625Z,10.60
2023-04-11T18:23:35.962Z,10.58
2023-04-11T18:26:03.585Z,10.59
2023-04-11T18:28:31.110Z,10.51
2023-04-11T18:30:58.841Z,10.39
2023-04-11T18:33:26.454Z,10.41
2023-04-11T18:35:54.281Z,10.37
2023-04-11T18:38:22.388Z,10.32
2023-04-11T18:40:54.552Z,10.32
2023-04-11T18:43:22.768Z,10.19
2023-04-11T18:45:50.746Z,10.25
2023-04-11T18:48:18.348Z,10.20
2023-04-11T18:50:48.788Z,10.04
2023-04-11T18:53:16.583Z,9.96
2023-04-11T18:55:44.547Z,9.87
2023-04-11T18:58:15.287Z,9.92
2023-04-11T19:00:44.476Z,9.96
2023-04-11T19:03:16.470Z,10.03
2023-04-11T19:05:45.519Z,10.03
2023-04-11T19:08:13.851Z,9.90
2023-04-11T19:10:41.772Z,9.89
2023-04-11T19:13:09.514Z,9.87
2023-04-11T19:15:40.565Z,9.78
2023-04-11T19:18:09.106Z,9.88
2023-04-11T19:20:39.047Z,9.79
2023-04-11T19:23:06.687Z,9.85
2023-04-11T19:25:34.864Z,9.82
2023-04-11T19:28:03.142Z,9.82
2023-04-11T19:30:31.251Z,9.85
2023-04-11T19:32:58.907Z,9.75
2023-04-11T19:35:27.396Z,9.79
2023-04-11T19:37:54.816Z,9.77
2023-04-11T19:40:23.535Z,9.81
2023-04-11T19:42:51.723Z,9.84
2023-04-11T19:45:19.628Z,9.82
2023-04-11T19:47:46.990Z,9.91
2023-04-11T19:50:14.914Z,9.94
2023-04-11T19:52:43.347Z,9.98
2023-04-11T19:55:12.699Z,9.95
2023-04-11T19:57:41.259Z,9.93
2023-04-11T20:00:14.423Z,9.87
2023-04-11T20:02:46.378Z,9.96
2023-04-11T20:05:20.022Z,9.93
2023-04-11T20:07:48.239Z,10.01
2023-04-11T20:10:16.856Z,10.06
2023-04-11T20:12:44.563Z,10.01
2023-04-11T20:15:12.586Z,9.92
2023-04-11T20:17:40.060Z,9.88
2023-04-11T20:20:09.147Z,9.83
2023-04-11T20:22:39.350Z,9.73
2023-04-11T20:25:08.257Z,9.77
2023-04-11T20:27:36.424Z,9.63
2023-04-11T20:30:12.305Z,9.64
2023-04-11T20:32:41.202Z,9.61
2023-04-11T20:35:12.203Z,9.52
2023-04-11T20:37:41.461Z,9.59
2023-04-11T20:40:11.106Z,9.56
2023-04-11T20:42:40.177Z,9.42
2023-04-11T20:45:11.347Z,9.50
2023-04-11T20:47:40.495Z,9.44
2023-04-11T20:50:10.683Z,9.38
2023-04-11T20:52:38.792Z,9.38
2023-04-11T20:55:07.557Z,9.40
2023-04-11T20:57:35.006Z,9.34
2023-04-11T21:00:23.354Z,9.24
2023-04-11T21:02:51.867Z,9.29
2023-04-11T21:05:25.077Z,9.15
2023-04-11T21:07:55.687Z,9.23
2023-04-11T21:10:23.542Z,9.10
2023-04-11T21:12:54.429Z,9.10
2023-04-11T21:15:22.544Z,9.05
2023-04-11T21:17:50.633Z,8.98
2023-04-11T21:20:18.614Z,8.99
2023-04-11T21:22:48.263Z,9.03
2023-04-11T21:25:16.550Z,8.98
2023-04-11T21:27:43.846Z,9.03
2023-04-11T21:30:13.944Z,9.01
2023-04-11T21:32:41.594Z,8.98
2023-04-11T21:35:11.609Z,8.96
2023-04-11T21:37:39.211Z,9.00
2023-04-11T21:40:07.681Z,9.12
2023-04-11T21:42:35.105Z,9.01
2023-04-11T21:45:02.720Z,8.95
2023-04-11T21:47:29.996Z,8.92
2023-04-11T21:49:57.605Z,8.94
2023-04-11T21:52:25.049Z,8.99
2023-04-11T21:54:52.613Z,8.99
2023-04-11T21:57:20.054Z,9.01
2023-04-11T21:59:47.616Z,8.95
2023-04-11T22:02:15.205Z,9.04
2023-04-11T22:05:00.911Z,8.83
2023-04-11T22:07:38.468Z,8.76
2023-04-11T22:10:10.202Z,8.77
2023-04-11T22:12:38.241Z,8.79
2023-04-11T22:15:06.943Z,8.69
2023-04-11T22:17:37.249Z,8.79
2023-04-11T22:20:06.933Z,8.62
2023-04-11T22:22:35.415Z,8.49
2023-04-11T22:25:03.786Z,8.41
2023-04-11T22:27:34.683Z,8.59
2023-04-11T22:30:02.644Z,8.49
2023-04-11T22:32:30.651Z,8.41
2023-04-11T22:34:59.739Z,8.50
2023-04-11T22:37:27.295Z,8.37
2023-04-11T22:39:55.194Z,8.25
2023-04-11T22:42:22.433Z,8.24
2023-04-11T22:44:49.986Z,8.20
2023-04-11T22:47:21.791Z,8.25
2023-04-11T22:49:50.536Z,8.12
2023-04-11T22:52:24.294Z,8.16
2023-04-11T22:54:52.232Z,8.27
2023-04-11T22:57:19.568Z,8.22
2023-04-11T22:59:47.375Z,8.07
2023-04-11T23:02:14.746Z,8.10
2023-04-11T23:04:42.516Z,8.07
2023-04-11T23:07:10.380Z,8.08
2023-04-11T23:09:38.156Z,8.13
2023-04-11T23:12:05.681Z,8.11
2023-04-11T23:14:33.287Z,8.10
2023-04-11T23:17:00.660Z,8.16
2023-04-11T23:19:30.223Z,8.12
2023-04-11T23:21:57.593Z,8.22
2023-04-11T23:24:25.201Z,8.22
2023-04-11T23:26:52.709Z,8.26
2023-04-11T23:29:20.245Z,8.21
2023-04-11T23:31:47.725Z,8.22
2023-04-11T23:34:15.428Z,8.14
2023-04-11T23:36:43.478Z,8.26
2023-04-11T23:39:11.181Z,8.26
2023-04-11T23:41:38.419Z,8.24
2023-04-11T23:44:06.057Z,8.26
2023-04-11T23:46:33.501Z,8.28
2023-04-11T23:49:01.116Z,8.28
2023-04-11T23:51:28.477Z,8.32
2023-04-11T23:53:56.289Z,8.37
2023-04-11T23:56:23.951Z,8.31
2023-04-11T23:58:51.484Z,8.31
